Time;durP1;ratioP1;P1;durP2;ratioP2;P2;SDS_P1;SDS_P2;PMS_P1;PMS_P2;Temp;Humidity;BMP_temperature;BMP_pressure;BME280_temperature;BME280_humidity;BME280_pressure;Samples;Min_cycle;Max_cycle;Signal;HPM_P1;HPM_P2
2023/03/01 00:02:22;;;;;;;;;;;;;;;20.49;44.03;102655.75;5072612;28;3013;-64
2023/03/01 00:04:48;;;;;;;;;;;;;;;20.49;44.06;102647.09;5075207;28;1696;-64
2023/03/01 00:07:15;;;;;;;;;;;;;;;20.49;43.98;102650.00;5074204;28;1849;-63
2023/03/01 00:09:41;;;;;;;;;;;;;;;20.49;44.08;102647.09;5071316;28;2836;-63
2023/03/01 00:12:07;;;;;;;;;;;;;;;20.50;44.03;102644.97;5077504;28;1961;-63
2023/03/01 00:14:34;;;;;;;;;;;;;;;20.49;44.19;102641.34;5068560;28;1750;-63
2023/03/01 00:17:00;;;;;;;;;;;;;;;20.51;44.23;102637.88;5073917;28;1861;-64
2023/03/01 00:19:26;;;;;;;;;;;;;;;20.50;44.01;102628.50;5077316;28;1807;-63
2023/03/01 00:21:53;;;;;;;;;;;;;;;20.51;44.04;102632.13;5074859;28;2387;-63
2023/03/01 00:24:19;;;;;;;;;;;;;;;20.48;44.19;102631.22;5074067;28;2870;-63
2023/03/01 00:26:46;;;;;;;;;;;;;;;20.49;44.13;102629.09;5076465;28;1738;-62
2023/03/01 00:29:12;;;;;;;;;;;;;;;20.48;44.20;102628.34;5075627;28;1936;-63
2023/03/01 00:31:39;;;;;;;;;;;;;;;20.48;44.12;102624.72;5077856;28;1942;-63
2023/03/01 00:34:05;;;;;;;;;;;;;;;20.47;44.06;102618.19;5073060;28;3008;-63
2023/03/01 00:36:32;;;;;;;;;;;;;;;20.47;44.14;102626.81;5058151;28;2021;-65
2023/03/01 00:38:59;;;;;;;;;;;;;;;20.48;44.10;102625.47;5076907;28;1795;-65
2023/03/01 00:41:28;;;;;;;;;;;;;;;20.48;44.33;102619.72;5073139;28;2746;-65
2023/03/01 00:43:55;;;;;;;;;;;;;;;20.50;44.14;102621.97;5101717;28;2497;-63
2023/03/01 00:46:25;;;;;;;;;;;;;;;20.50;44.28;102616.97;5077843;28;2620;-62
2023/03/01 00:48:51;;;;;;;;;;;;;;;20.50;44.15;102622.75;5078991;28;2244;-63
2023/03/01 00:51:19;;;;;;;;;;;;;;;20.50;44.24;102613.31;5106056;28;2804;-63
2023/03/01 00:53:45;;;;;;;;;;;;;;;20.49;44.35;102606.81;5105621;27;1817;-62
2023/03/01 00:56:12;;;;;;;;;;;;;;;20.48;44.24;102608.19;5074602;28;1636;-63
2023/03/01 00:58:38;;;;;;;;;;;;;;;20.48;44.36;102602.44;5079757;28;1647;-63
2023/03/01 01:01:16;;;;;;;;;;;;;;;20.47;44.36;102606.66;5072301;28;2064;-63
2023/03/01 01:04:13;;;;;;;;;;;;;;;20.46;44.31;102605.16;5073128;28;2633;-63
2023/03/01 01:06:42;;;;;;;;;;;;;;;20.45;44.17;102612.28;5061418;28;1728;-63
2023/03/01 01:09:08;;;;;;;;;;;;;;;20.47;44.21;102611.69;5073460;28;2798;-63
2023/03/01 01:11:36;;;;;;;;;;;;;;;20.45;44.08;102609.38;5073860;28;2976;-62
2023/03/01 01:14:02;;;;;;;;;;;;;;;20.46;44.16;102605.16;5077824;28;1777;-63
2023/03/01 01:16:28;;;;;;;;;;;;;;;20.46;44.10;102605.16;5075051;28;1774;-66
2023/03/01 01:18:55;;;;;;;;;;;;;;;20.47;44.23;102605.91;5087097;28;1977;-66
2023/03/01 01:21:22;;;;;;;;;;;;;;;20.47;44.22;102598.03;5105826;27;2295;-66
2023/03/01 01:23:49;;;;;;;;;;;;;;;20.48;44.38;102595.94;5074637;28;2774;-65
2023/03/01 01:26:17;;;;;;;;;;;;;;;20.46;44.22;102590.78;5072992;28;1792;-65
2023/03/01 01:28:43;;;;;;;;;;;;;;;20.46;44.24;102593.66;5073966;28;1773;-66
2023/03/01 01:31:09;;;;;;;;;;;;;;;20.44;44.17;102587.75;5106031;27;2863;-66
2023/03/01 01:33:37;;;;;;;;;;;;;;;20.45;44.20;102577.00;5075971;28;2234;-63
2023/03/01 01:36:06;;;;;;;;;;;;;;;20.43;44.07;102589.13;5073375;28;1777;-63
2023/03/01 01:38:33;;;;;;;;;;;;;;;20.43;44.22;102571.84;5073515;28;1723;-63
2023/03/01 01:40:59;;;;;;;;;;;;;;;20.44;44.16;102566.84;5070533;28;2805;-63
2023/03/01 01:43:27;;;;;;;;;;;;;;;20.44;44.09;102561.84;5072036;28;2410;-63
2023/03/01 01:45:56;;;;;;;;;;;;;;;20.45;44.32;102559.72;5063497;28;2456;-63
2023/03/01 01:48:23;;;;;;;;;;;;;;;20.44;44.21;102556.09;5100400;27;2371;-63
2023/03/01 01:50:53;;;;;;;;;;;;;;;20.46;44.32;102553.38;5102273;27;2786;-63
2023/03/01 01:53:19;;;;;;;;;;;;;;;20.47;44.34;102554.13;5098811;27;2441;-63
2023/03/01 01:55:47;;;;;;;;;;;;;;;20.47;44.32;102554.88;5068798;28;1715;-63
2023/03/01 01:58:14;;;;;;;;;;;;;;;20.46;44.57;102556.25;5087420;28;1935;-63
2023/03/01 02:00:40;;;;;;;;;;;;;;;20.45;44.43;102551.84;5069814;28;2809;-63
2023/03/01 02:03:10;;;;;;;;;;;;;;;20.45;44.30;102554.72;5068169;28;2875;-63
2023/03/01 02:05:38;;;;;;;;;;;;;;;20.44;44.27;102564.72;5099505;27;1704;-63
2023/03/01 02:08:05;;;;;;;;;;;;;;;20.43;44.19;102577.63;5096895;27;2057;-63
2023/03/01 02:10:33;;;;;;;;;;;;;;;20.43;44.19;102566.09;5101640;27;1977;-65
2023/03/01 02:12:59;;;;;;;;;;;;;;;20.42;44.13;102573.22;5100712;27;2647;-63
2023/03/01 02:15:26;;;;;;;;;;;;;;;20.41;44.29;102574.59;5064807;28;1665;-63
2023/03/01 02:17:53;;;;;;;;;;;;;;;20.43;44.27;102573.97;5069712;28;1809;-63
2023/03/01 02:20:36;;;;;;;;;;;;;;;20.42;44.47;102581.09;5061923;28;2866;-63
2023/03/01 02:23:02;;;;;;;;;;;;;;;20.43;44.42;102576.84;5067516;28;2798;-65
2023/03/01 02:25:33;;;;;;;;;;;;;;;20.43;44.21;102574.72;5068631;28;3269;-65
2023/03/01 02:28:00;;;;;;;;;;;;;;;20.44;44.23;102575.50;5095241;27;1646;-63
2023/03/01 02:30:26;;;;;;;;;;;;;;;20.43;44.27;102566.09;5067045;28;2651;-63
2023/03/01 02:32:52;;;;;;;;;;;;;;;20.42;44.50;102567.44;5059483;28;1981;-63
2023/03/01 02:35:19;;;;;;;;;;;;;;;20.41;44.39;102571.72;5062785;28;2754;-63
2023/03/01 02:37:45;;;;;;;;;;;;;;;20.40;44.26;102567.31;5069925;28;1766;-63
2023/03/01 02:40:13;;;;;;;;;;;;;;;20.41;44.22;102568.81;5062137;28;2427;-64
2023/03/01 02:42:45;;;;;;;;;;;;;;;20.39;44.17;102560.03;5096591;27;2565;-64
2023/03/01 02:45:11;;;;;;;;;;;;;;;20.40;44.17;102578.81;5087162;28;2773;-64
2023/03/01 02:47:38;;;;;;;;;;;;;;;20.40;44.28;102578.81;5052114;28;2368;-63
2023/03/01 02:50:11;;;;;;;;;;;;;;;20.39;44.20;102574.44;5064354;28;1723;-64
2023/03/01 02:52:47;;;;;;;;;;;;;;;20.40;44.33;102578.81;5096680;27;1909;-64
2023/03/01 02:55:14;;;;;;;;;;;;;;;20.41;44.27;102571.72;5073559;28;2820;-64
2023/03/01 02:57:41;;;;;;;;;;;;;;;20.42;44.28;102564.56;5054093;28;1804;-64
2023/03/01 03:00:11;;;;;;;;;;;;;;;20.42;44.39;102553.06;5065762;28;2897;-64
2023/03/01 03:02:37;;;;;;;;;;;;;;;20.42;44.17;102558.06;5080314;28;2880;-64
2023/03/01 03:05:22;;;;;;;;;;;;;;;20.40;44.38;102561.53;5071668;28;1692;-64
2023/03/01 03:07:52;;;;;;;;;;;;;;;20.40;44.40;102550.03;5069539;28;1703;-64
2023/03/01 03:10:20;;;;;;;;;;;;;;;20.39;44.22;102554.28;5072115;28;1912;-64
2023/03/01 03:12:51;;;;;;;;;;;;;;;20.39;44.57;102548.53;5066723;28;2597;-63
2023/03/01 03:15:17;;;;;;;;;;;;;;;20.38;44.44;102549.88;5072097;28;1650;-64
2023/03/01 03:17:44;;;;;;;;;;;;;;;20.37;44.32;102551.25;5070496;28;1548;-64
2023/03/01 03:20:12;;;;;;;;;;;;;;;20.38;44.15;102557.75;5067170;28;1928;-64
2023/03/01 03:22:39;;;;;;;;;;;;;;;20.37;44.12;102557.00;5063154;28;2982;-64
2023/03/01 03:25:10;;;;;;;;;;;;;;;20.38;44.29;102554.88;5065464;28;2785;-63
2023/03/01 03:27:37;;;;;;;;;;;;;;;20.38;44.42;102558.50;5066255;28;1674;-64
2023/03/01 03:30:08;;;;;;;;;;;;;;;20.38;44.47;102555.63;5069004;28;1761;-64
2023/03/01 03:32:38;;;;;;;;;;;;;;;20.38;44.15;102549.88;5068929;28;2246;-64
2023/03/01 03:35:11;;;;;;;;;;;;;;;20.38;44.35;102541.25;5067479;28;1665;-64
2023/03/01 03:40:26;;;;;;;;;;;;;;;20.37;44.27;102534.00;5067201;28;1668;-63
2023/03/01 03:42:52;;;;;;;;;;;;;;;20.37;44.30;102528.25;5062881;28;2870;-64
2023/03/01 03:45:18;;;;;;;;;;;;;;;20.38;44.16;102535.50;5061709;28;2830;-64
2023/03/01 03:47:45;;;;;;;;;;;;;;;20.39;44.36;102536.28;5062954;28;2692;-64
2023/03/01 03:50:11;;;;;;;;;;;;;;;20.40;44.18;102527.00;5056188;28;2152;-64
2023/03/01 03:52:38;;;;;;;;;;;;;;;20.41;44.45;102527.75;5054186;28;2937;-64
2023/03/01 03:55:10;;;;;;;;;;;;;;;20.41;44.37;102522.00;5062254;28;2683;-64
2023/03/01 03:57:37;;;;;;;;;;;;;;;20.41;44.33;102517.03;5061127;28;1673;-64
2023/03/01 04:00:05;;;;;;;;;;;;;;;20.39;44.47;102519.75;5062613;28;1770;-65
2023/03/01 04:02:37;;;;;;;;;;;;;;;20.41;44.63;102517.03;5060568;28;2835;-65
2023/03/01 04:05:04;;;;;;;;;;;;;;;20.41;44.68;102514.16;5066970;28;1667;-64
2023/03/01 04:07:30;;;;;;;;;;;;;;;20.42;44.60;102512.03;5056091;28;1598;-64
2023/03/01 04:09:56;;;;;;;;;;;;;;;20.39;44.47;102507.50;5063455;28;2829;-64
2023/03/01 04:12:23;;;;;;;;;;;;;;;20.39;44.43;102499.63;5067154;28;1914;-64
2023/03/01 04:14:49;;;;;;;;;;;;;;;20.39;44.39;102511.13;5062738;28;1805;-64
2023/03/01 04:17:15;;;;;;;;;;;;;;;20.36;44.43;102515.19;5057643;28;2811;-64
2023/03/01 04:19:43;;;;;;;;;;;;;;;20.37;44.40;102519.59;5064493;28;2720;-64
2023/03/01 04:22:11;;;;;;;;;;;;;;;20.37;44.21;102516.72;5055682;28;2916;-64
2023/03/01 04:24:37;;;;;;;;;;;;;;;20.35;44.38;102510.81;5066886;28;2889;-64
2023/03/01 04:27:04;;;;;;;;;;;;;;;20.35;44.44;102528.09;5056018;28;2803;-66
2023/03/01 04:29:30;;;;;;;;;;;;;;;20.38;44.34;102518.22;5057684;28;2790;-59
2023/03/01 04:31:56;;;;;;;;;;;;;;;20.24;44.81;102522.97;5065124;28;2206;-59
2023/03/01 04:34:23;;;;;;;;;;;;;;;20.19;44.81;102521.16;5067682;28;1604;-59
2023/03/01 04:36:49;;;;;;;;;;;;;;;20.23;44.48;102518.59;5059750;28;1727;-59
2023/03/01 04:39:15;;;;;;;;;;;;;;;20.25;44.29;102510.09;5066972;28;1634;-59
2023/03/01 04:41:45;;;;;;;;;;;;;;;20.27;44.19;102513.09;5060459;28;2516;-59
2023/03/01 04:44:11;;;;;;;;;;;;;;;20.28;44.48;102503.88;5064779;28;2117;-59
2023/03/01 04:46:37;;;;;;;;;;;;;;;20.31;44.13;102513.41;5066062;28;1656;-59
2023/03/01 04:49:04;;;;;;;;;;;;;;;20.33;44.23;102509.94;5063733;28;2494;-59
2023/03/01 04:51:32;;;;;;;;;;;;;;;20.33;44.33;102512.81;5056615;28;1910;-59
2023/03/01 04:54:00;;;;;;;;;;;;;;;20.34;44.58;102499.91;5067076;28;1716;-59
2023/03/01 04:56:26;;;;;;;;;;;;;;;20.33;44.51;102504.19;5067130;28;1849;-59
2023/03/01 04:58:53;;;;;;;;;;;;;;;20.33;44.58;102502.03;5075482;28;2339;-59
2023/03/01 05:01:19;;;;;;;;;;;;;;;20.33;44.53;102504.91;5062294;28;1591;-59
2023/03/01 05:03:46;;;;;;;;;;;;;;;20.34;44.65;102509.31;5066231;28;1709;-59
2023/03/01 05:06:13;;;;;;;;;;;;;;;20.32;44.59;102503.44;5072174;28;1933;-59
2023/03/01 05:08:39;;;;;;;;;;;;;;;20.32;44.59;102497.66;5098123;27;1711;-59
2023/03/01 05:11:05;;;;;;;;;;;;;;;20.30;44.79;102506.91;5072453;28;1592;-59
2023/03/01 05:13:32;;;;;;;;;;;;;;;20.28;44.72;102506.00;5076456;28;2062;-59
2023/03/01 05:15:59;;;;;;;;;;;;;;;20.27;44.80;102502.38;5074109;28;1766;-59
2023/03/01 05:18:26;;;;;;;;;;;;;;;20.25;44.72;102505.09;5073082;28;1623;-58
2023/03/01 05:20:52;;;;;;;;;;;;;;;20.25;44.66;102507.22;5070265;28;1727;-59
2023/03/01 05:23:19;;;;;;;;;;;;;;;20.24;44.48;102505.69;5070414;28;1642;-59
2023/03/01 05:25:45;;;;;;;;;;;;;;;20.24;44.67;102508.56;5062762;28;1664;-59
2023/03/01 05:28:11;;;;;;;;;;;;;;;20.23;45.02;102501.31;5074328;28;1660;-64
2023/03/01 05:30:41;;;;;;;;;;;;;;;20.37;44.72;102505.22;5078097;28;1638;-62
2023/03/01 05:33:13;;;;;;;;;;;;;;;20.37;44.82;102505.22;5067800;28;1975;-63
2023/03/01 05:35:40;;;;;;;;;;;;;;;20.34;45.14;102506.44;5073522;28;1711;-64
2023/03/01 05:38:07;;;;;;;;;;;;;;;20.33;45.25;102504.91;5075378;28;1862;-64
2023/03/01 05:40:33;;;;;;;;;;;;;;;20.16;44.73;102508.75;5073044;28;2943;-64
2023/03/01 05:43:00;;;;;;;;;;;;;;;19.96;44.32;102505.13;5073241;28;2767;-65
2023/03/01 05:45:26;;;;;;;;;;;;;;;20.06;43.93;102494.34;5069500;28;2919;-64
2023/03/01 05:47:52;;;;;;;;;;;;;;;20.11;44.57;102498.28;5072351;28;2663;-64
2023/03/01 05:50:20;;;;;;;;;;;;;;;20.16;44.25;102496.47;5077581;28;2625;-64
2023/03/01 05:52:50;;;;;;;;;;;;;;;20.19;44.33;102498.16;5079614;28;2710;-64
2023/03/01 05:55:17;;;;;;;;;;;;;;;20.19;43.86;102496.00;5075988;28;2829;-65
2023/03/01 05:57:43;;;;;;;;;;;;;;;20.19;44.03;102501.00;5075817;28;2962;-65
2023/03/01 06:00:10;;;;;;;;;;;;;;;20.19;43.99;102507.53;5077130;28;2630;-64
2023/03/01 06:02:39;;;;;;;;;;;;;;;20.19;44.06;102503.91;5076608;28;2274;-65
2023/03/01 06:05:06;;;;;;;;;;;;;;;20.16;44.35;102499.34;5079481;28;1862;-65
2023/03/01 06:07:33;;;;;;;;;;;;;;;20.13;44.40;102498.44;5110853;27;2311;-65
2023/03/01 06:09:59;;;;;;;;;;;;;;;20.12;44.49;102496.19;5078397;28;1587;-64
2023/03/01 06:12:25;;;;;;;;;;;;;;;20.11;44.47;102501.16;5074877;28;1921;-65
2023/03/01 06:14:52;;;;;;;;;;;;;;;20.09;44.34;102493.16;5071853;28;1607;-63
2023/03/01 06:17:18;;;;;;;;;;;;;;;20.10;44.22;102493.91;5061135;28;2704;-66
2023/03/01 06:19:44;;;;;;;;;;;;;;;20.12;44.13;102499.81;5077710;28;1806;-65
2023/03/01 06:22:11;;;;;;;;;;;;;;;20.13;44.41;102497.69;5101227;27;2705;-64
2023/03/01 06:24:37;;;;;;;;;;;;;;;20.13;44.45;102494.81;5069448;28;2724;-64
2023/03/01 06:27:04;;;;;;;;;;;;;;;20.14;44.55;102499.22;5070806;28;2908;-64
2023/03/01 06:29:30;;;;;;;;;;;;;;;20.13;44.53;102501.31;5073204;28;1640;-64
2023/03/01 06:31:56;;;;;;;;;;;;;;;20.14;44.36;102499.97;5077376;28;2789;-64
2023/03/01 06:34:23;;;;;;;;;;;;;;;20.15;44.37;102494.97;5075707;28;1901;-63
2023/03/01 06:36:49;;;;;;;;;;;;;;;20.15;44.65;102497.84;5075299;28;1615;-65
2023/03/01 06:39:17;;;;;;;;;;;;;;;20.15;44.83;102489.22;5077164;28;1786;-64
2023/03/01 06:41:44;;;;;;;;;;;;;;;20.16;44.69;102496.47;5069707;28;1794;-64
2023/03/01 06:44:10;;;;;;;;;;;;;;;20.17;44.72;102495.88;5073499;28;2546;-64
2023/03/01 06:46:37;;;;;;;;;;;;;;;20.21;44.86;102501.16;5072975;28;1792;-63
2023/03/01 06:49:07;;;;;;;;;;;;;;;20.16;45.09;102497.25;5069038;28;2843;-64
2023/03/01 06:51:33;;;;;;;;;;;;;;;20.16;45.25;102502.22;5069993;28;1700;-65
2023/03/01 06:54:00;;;;;;;;;;;;;;;20.16;45.27;102500.13;5073754;28;1971;-64
2023/03/01 06:56:27;;;;;;;;;;;;;;;20.20;45.27;102508.28;5074037;28;1925;-64
2023/03/01 06:58:53;;;;;;;;;;;;;;;20.21;45.24;102512.69;5070761;28;1706;-64
2023/03/01 07:01:19;;;;;;;;;;;;;;;20.22;45.03;102502.66;5071648;28;1846;-65
2023/03/01 07:03:46;;;;;;;;;;;;;;;20.22;45.36;102506.28;5068929;28;1789;-64
2023/03/01 07:06:12;;;;;;;;;;;;;;;20.22;45.28;102505.53;5077091;28;1644;-64
2023/03/01 07:08:38;;;;;;;;;;;;;;;20.21;45.31;102509.78;5075090;28;1865;-63
2023/03/01 07:11:05;;;;;;;;;;;;;;;20.20;45.34;102514.81;5075510;28;1695;-64
2023/03/01 07:13:31;;;;;;;;;;;;;;;20.20;45.39;102514.81;5074559;28;1977;-64
2023/03/01 07:15:58;;;;;;;;;;;;;;;20.21;45.49;102512.69;5074547;28;1798;-64
2023/03/01 07:18:24;;;;;;;;;;;;;;;20.20;45.27;102508.28;5072599;28;2547;-65
2023/03/01 07:20:51;;;;;;;;;;;;;;;20.19;45.39;102509.66;5073338;28;1607;-64
2023/03/01 07:23:17;;;;;;;;;;;;;;;20.19;45.46;102521.91;5073628;28;1648;-64
2023/03/01 07:25:43;;;;;;;;;;;;;;;20.19;45.35;102524.03;5076178;28;1806;-65
2023/03/01 07:28:10;;;;;;;;;;;;;;;20.19;45.46;102518.28;5076597;28;1770;-65
2023/03/01 07:30:36;;;;;;;;;;;;;;;20.20;45.35;102514.03;5075015;28;1972;-65
2023/03/01 07:33:02;;;;;;;;;;;;;;;20.21;45.41;102521.31;5073418;28;1902;-64
2023/03/01 07:35:29;;;;;;;;;;;;;;;20.22;45.59;102523.56;5073536;28;1862;-65
2023/03/01 07:37:55;;;;;;;;;;;;;;;20.23;45.29;102513.56;5077284;28;1700;-65
2023/03/01 07:40:22;;;;;;;;;;;;;;;20.26;45.45;102523.09;5109473;27;1905;-64
2023/03/01 07:42:48;;;;;;;;;;;;;;;20.27;45.32;102513.09;5074570;28;1622;-65
2023/03/01 07:45:14;;;;;;;;;;;;;;;20.29;45.36;102516.13;5077291;28;1935;-64
2023/03/01 07:47:41;;;;;;;;;;;;;;;20.31;45.59;102513.41;5075668;28;1647;-64
2023/03/01 07:50:07;;;;;;;;;;;;;;;20.31;45.50;102516.28;5075829;28;1888;-64
2023/03/01 07:52:34;;;;;;;;;;;;;;;20.31;45.50;102513.41;5077163;28;1909;-64
2023/03/01 07:55:00;;;;;;;;;;;;;;;20.31;45.55;102513.41;5075972;28;1714;-67
2023/03/01 07:57:26;;;;;;;;;;;;;;;20.31;45.76;102519.16;5073027;28;2565;-66
2023/03/01 07:59:53;;;;;;;;;;;;;;;20.26;45.86;102514.47;5067234;28;2741;-63
2023/03/01 08:02:19;;;;;;;;;;;;;;;20.25;45.95;102518.72;5068274;28;2497;-63
2023/03/01 08:04:45;;;;;;;;;;;;;;;20.28;45.51;102511.75;5073511;28;2493;-63
2023/03/01 08:07:12;;;;;;;;;;;;;;;20.28;45.75;102514.63;5073167;28;2528;-64
2023/03/01 08:09:38;;;;;;;;;;;;;;;20.29;45.55;102507.50;5072037;28;2426;-63
2023/03/01 08:12:05;;;;;;;;;;;;;;;20.28;45.59;102509.63;5083505;28;1657;-63
2023/03/01 08:14:34;;;;;;;;;;;;;;;20.28;45.63;102509.63;5078989;28;2267;-63
2023/03/01 08:17:02;;;;;;;;;;;;;;;20.27;45.68;102508.13;5059518;28;2510;-63
2023/03/01 08:19:29;;;;;;;;;;;;;;;20.27;45.73;102501.59;5080184;28;1818;-63
2023/03/01 08:21:57;;;;;;;;;;;;;;;20.28;45.59;102511.75;5071785;28;1908;-63
2023/03/01 08:24:24;;;;;;;;;;;;;;;20.30;45.61;102500.41;5075799;28;1626;-63
2023/03/01 08:26:50;;;;;;;;;;;;;;;20.29;45.64;102505.41;5075217;28;2489;-63
2023/03/01 08:29:16;;;;;;;;;;;;;;;20.30;45.62;102506.16;5072994;28;2308;-63
2023/03/01 08:31:43;;;;;;;;;;;;;;;20.31;45.73;102501.91;5079976;28;1699;-63
2023/03/01 08:34:10;;;;;;;;;;;;;;;20.32;45.62;102497.66;5079658;28;1941;-63
2023/03/01 08:36:37;;;;;;;;;;;;;;;20.33;45.62;102499.16;5079039;28;1759;-64
2023/03/01 08:39:04;;;;;;;;;;;;;;;20.34;45.80;102494.94;5068693;28;2450;-63
2023/03/01 08:41:30;;;;;;;;;;;;;;;20.34;45.72;102492.06;5077759;28;2414;-65
2023/03/01 08:43:59;;;;;;;;;;;;;;;20.36;45.54;102492.19;5064739;28;2359;-65
2023/03/01 08:46:30;;;;;;;;;;;;;;;20.36;45.77;102492.19;5077977;28;2316;-65
2023/03/01 08:48:56;;;;;;;;;;;;;;;20.36;45.79;102497.94;5076584;28;1746;-63
2023/03/01 08:51:23;;;;;;;;;;;;;;;20.36;45.60;102492.19;5076749;28;1682;-64
2023/03/01 08:53:49;;;;;;;;;;;;;;;20.34;45.85;102494.94;5073100;28;1977;-63
2023/03/01 08:56:16;;;;;;;;;;;;;;;20.35;45.74;102482.06;5077535;28;2502;-63
2023/03/01 08:58:45;;;;;;;;;;;;;;;20.32;45.94;102488.25;5067977;28;2570;-63
2023/03/01 09:01:12;;;;;;;;;;;;;;;20.29;45.77;102490.25;5072782;28;2485;-63
2023/03/01 09:03:39;;;;;;;;;;;;;;;20.28;45.86;102491.63;5074093;28;2526;-64
2023/03/01 09:06:05;;;;;;;;;;;;;;;20.28;45.77;102486.59;5071206;28;2478;-63
2023/03/01 09:08:33;;;;;;;;;;;;;;;20.29;45.78;102490.25;5073897;28;2301;-63
2023/03/01 09:11:01;;;;;;;;;;;;;;;20.29;45.71;102487.34;5077126;28;1849;-63
2023/03/01 09:13:30;;;;;;;;;;;;;;;20.28;45.72;102485.84;5067810;28;2491;-63
2023/03/01 09:15:57;;;;;;;;;;;;;;;20.28;45.73;102474.34;5069840;28;1980;-63
2023/03/01 09:18:23;;;;;;;;;;;;;;;20.27;45.82;102478.56;5074617;28;1759;-63
2023/03/01 09:20:50;;;;;;;;;;;;;;;20.28;45.80;102469.34;5074042;28;1850;-63
2023/03/01 09:23:16;;;;;;;;;;;;;;;20.28;45.85;102474.34;5072761;28;2564;-63
2023/03/01 09:25:42;;;;;;;;;;;;;;;20.29;45.89;102475.84;5075135;28;1678;-63
2023/03/01 09:28:10;;;;;;;;;;;;;;;20.30;45.79;102474.50;5072285;28;2376;-63
2023/03/01 09:30:57;;;;;;;;;;;;;;;20.30;45.80;102468.75;5070095;28;2541;-63
2023/03/01 09:33:23;;;;;;;;;;;;;;;20.32;45.68;102463.16;5072688;28;1887;-62
2023/03/01 09:35:49;;;;;;;;;;;;;;;20.33;45.64;102466.78;5067487;28;1759;-63
2023/03/01 09:38:16;;;;;;;;;;;;;;;20.34;45.70;102471.94;5071415;28;2466;-63
2023/03/01 09:40:43;;;;;;;;;;;;;;;20.36;45.79;102460.53;5072610;28;1811;-64
2023/03/01 09:43:15;;;;;;;;;;;;;;;20.36;45.82;102463.41;5071293;28;2430;-64
2023/03/01 09:45:42;;;;;;;;;;;;;;;20.35;45.80;102464.03;5107929;27;1923;-64
2023/03/01 09:48:11;;;;;;;;;;;;;;;20.38;45.80;102460.69;5073447;28;2333;-63
2023/03/01 09:50:39;;;;;;;;;;;;;;;20.39;45.64;102461.47;5101551;27;2824;-64
2023/03/01 09:53:10;;;;;;;;;;;;;;;20.39;45.68;102464.34;5102102;27;2987;-63
2023/03/01 09:55:38;;;;;;;;;;;;;;;20.38;45.68;102463.56;5068053;28;2459;-64
2023/03/01 09:58:23;;;;;;;;;;;;;;;20.36;45.77;102463.41;5098864;27;2561;-63
2023/03/01 10:00:49;;;;;;;;;;;;;;;20.38;45.78;102462.81;5066303;28;2629;-63
2023/03/01 10:03:28;;;;;;;;;;;;;;;20.38;45.85;102460.69;5099081;27;2737;-64
2023/03/01 10:05:56;;;;;;;;;;;;;;;20.40;45.58;102463.72;5067776;28;3057;-66
2023/03/01 10:08:29;;;;;;;;;;;;;;;20.40;45.75;102463.72;5096730;27;2847;-63
2023/03/01 10:10:55;;;;;;;;;;;;;;;20.40;45.71;102463.72;5060685;28;2862;-64
2023/03/01 10:13:24;;;;;;;;;;;;;;;20.39;45.76;102462.22;5067243;28;3187;-63
2023/03/01 10:15:55;;;;;;;;;;;;;;;20.41;45.79;102471.00;5101239;27;2848;-63
2023/03/01 10:18:22;;;;;;;;;;;;;;;20.40;45.81;102469.47;5104521;27;2764;-63
2023/03/01 10:20:51;;;;;;;;;;;;;;;20.42;45.81;102466.00;5069483;28;1787;-63
2023/03/01 10:23:17;;;;;;;;;;;;;;;20.42;46.07;102463.09;5069145;28;1622;-64
2023/03/01 10:25:56;;;;;;;;;;;;;;;20.41;45.87;102462.34;5067186;28;1737;-64
2023/03/01 10:28:27;;;;;;;;;;;;;;;20.43;45.96;102462.50;5070212;28;1724;-63
2023/03/01 10:30:53;;;;;;;;;;;;;;;20.43;45.81;102462.50;5103188;27;2833;-63
2023/03/01 10:33:21;;;;;;;;;;;;;;;20.42;46.07;102455.22;5069497;28;1914;-63
2023/03/01 10:35:48;;;;;;;;;;;;;;;20.41;45.87;102459.47;5062834;28;2236;-63
2023/03/01 10:38:15;;;;;;;;;;;;;;;20.40;45.80;102451.44;5068338;28;1884;-64
2023/03/01 10:40:54;;;;;;;;;;;;;;;20.39;45.92;102450.69;5064809;28;1787;-63
2023/03/01 10:43:20;;;;;;;;;;;;;;;20.39;45.91;102453.59;5102230;27;1684;-63
2023/03/01 10:45:47;;;;;;;;;;;;;;;20.39;45.88;102450.69;5069608;28;1837;-63
2023/03/01 10:48:23;;;;;;;;;;;;;;;20.41;45.86;102442.22;5066050;28;1624;-64
2023/03/01 10:50:58;;;;;;;;;;;;;;;20.42;45.99;102440.09;5057786;28;1636;-64
2023/03/01 10:53:35;;;;;;;;;;;;;;;20.43;45.76;102438.72;5064202;28;2740;-64
2023/03/01 10:56:13;;;;;;;;;;;;;;;20.44;45.76;102435.22;5048559;28;2897;-64
2023/03/01 10:58:40;;;;;;;;;;;;;;;20.45;45.76;102436.72;5088469;27;2469;-64
2023/03/01 11:01:06;;;;;;;;;;;;;;;20.46;45.80;102434.63;5089847;28;3126;-63
2023/03/01 11:03:33;;;;;;;;;;;;;;;20.46;45.66;102432.50;5061618;28;2713;-63
2023/03/01 11:06:01;;;;;;;;;;;;;;;20.50;45.72;102432.78;5094045;27;2966;-68
2023/03/01 11:08:30;;;;;;;;;;;;;;;20.51;45.69;102427.78;5052570;28;2570;-63
2023/03/01 11:11:03;;;;;;;;;;;;;;;20.51;45.83;102419.91;5051721;28;2772;-67
2023/03/01 11:13:56;;;;;;;;;;;;;;;20.51;45.76;102405.50;5063528;28;2764;-65
2023/03/01 11:17:05;;;;;;;;;;;;;;;20.48;45.75;102403.13;5047502;28;1690;-64
2023/03/01 11:19:31;;;;;;;;;;;;;;;20.47;45.86;102393.72;5093818;27;1849;-64
2023/03/01 11:21:59;;;;;;;;;;;;;;;20.48;45.88;102406.00;5057622;28;1928;-64
2023/03/01 11:24:27;;;;;;;;;;;;;;;20.48;45.88;102401.00;5095321;27;3110;-64
2023/03/01 11:26:54;;;;;;;;;;;;;;;20.49;45.77;102402.50;5063814;28;2506;-65
2023/03/01 11:29:26;;;;;;;;;;;;;;;20.50;45.76;102401.13;5071605;28;2309;-64
2023/03/01 11:31:59;;;;;;;;;;;;;;;20.50;45.86;102398.25;5091401;27;1869;-64
2023/03/01 11:34:45;;;;;;;;;;;;;;;20.50;45.78;102389.63;5090069;28;1969;-64
2023/03/01 11:37:16;;;;;;;;;;;;;;;20.51;45.78;102393.25;5061134;28;1846;-64
2023/03/01 11:39:58;;;;;;;;;;;;;;;20.54;45.77;102400.66;5056668;28;1712;-64
2023/03/01 11:42:28;;;;;;;;;;;;;;;20.53;45.88;102389.78;5100392;27;2281;-64
2023/03/01 11:44:54;;;;;;;;;;;;;;;20.53;45.82;102392.66;5062618;28;2069;-64
2023/03/01 11:47:30;;;;;;;;;;;;;;;20.53;45.89;102392.66;5066904;28;1623;-64
2023/03/01 11:50:06;;;;;;;;;;;;;;;20.54;45.76;102391.28;5102131;28;1923;-64
2023/03/01 11:52:39;;;;;;;;;;;;;;;20.53;46.00;102384.03;5103175;28;1750;-64
2023/03/01 11:55:26;;;;;;;;;;;;;;;20.56;46.05;102386.44;5103602;28;1918;-64
2023/03/01 11:58:08;;;;;;;;;;;;;;;20.54;46.13;102382.63;5095526;28;1767;-65
2023/03/01 12:00:41;;;;;;;;;;;;;;;20.54;45.93;102392.00;5092578;28;1698;-64
2023/03/01 12:03:13;;;;;;;;;;;;;;;20.58;46.08;102391.59;5079841;28;1846;-65
2023/03/01 12:05:49;;;;;;;;;;;;;;;20.57;46.08;102385.09;5109530;28;1713;-64
2023/03/01 12:08:31;;;;;;;;;;;;;;;20.58;46.12;102382.94;5069572;28;1881;-64
2023/03/01 12:11:03;;;;;;;;;;;;;;;20.58;46.04;102380.81;5060758;28;1874;-64
2023/03/01 12:13:45;;;;;;;;;;;;;;;20.58;46.14;102363.56;5104772;28;1910;-64
2023/03/01 12:16:30;;;;;;;;;;;;;;;20.60;46.01;102366.56;5071677;28;1661;-64
2023/03/01 12:19:24;;;;;;;;;;;;;;;20.60;46.15;102360.06;5059549;28;1702;-64
2023/03/01 12:21:56;;;;;;;;;;;;;;;20.62;46.04;102357.34;5065458;28;1841;-64
2023/03/01 12:24:26;;;;;;;;;;;;;;;20.62;45.99;102354.47;5060899;28;1853;-64
2023/03/01 12:27:04;;;;;;;;;;;;;;;20.61;45.98;102347.19;5093967;28;1709;-64
2023/03/01 12:29:53;;;;;;;;;;;;;;;20.60;46.04;102355.06;5060710;28;1793;-64
2023/03/01 12:32:32;;;;;;;;;;;;;;;20.62;46.31;102357.34;5094837;28;1853;-64
2023/03/01 12:35:20;;;;;;;;;;;;;;;20.64;45.89;102354.59;5095191;28;1906;-64
2023/03/01 12:38:05;;;;;;;;;;;;;;;20.64;46.11;102346.72;5074265;28;1826;-64
2023/03/01 12:40:34;;;;;;;;;;;;;;;20.63;46.00;102342.31;5092950;28;1797;-64
2023/03/01 12:43:05;;;;;;;;;;;;;;;20.65;45.93;102338.81;5067577;28;1829;-64
2023/03/01 12:45:31;;;;;;;;;;;;;;;20.66;45.99;102335.34;5105941;28;1793;-64
2023/03/01 12:48:15;;;;;;;;;;;;;;;20.66;46.09;102328.81;5076819;28;1722;-64
2023/03/01 12:50:46;;;;;;;;;;;;;;;20.66;46.14;102318.06;5076880;28;2426;-65
2023/03/01 12:53:23;;;;;;;;;;;;;;;20.67;46.13;102310.19;5078948;28;1857;-64
2023/03/01 12:55:50;;;;;;;;;;;;;;;20.67;46.13;102313.81;5083628;28;1790;-64
2023/03/01 12:58:21;;;;;;;;;;;;;;;20.67;46.01;102313.81;5082689;28;1861;-64
2023/03/01 13:00:59;;;;;;;;;;;;;;;20.68;46.09;102309.56;5079859;28;1794;-64